KRPD

Details ICAO KRPD
Name RICE LAKE RGNL CARLS FLD
Region United States
Timezone America/Chicago (UTC-6.0)
Plans Departing 4
Arriving 8
Stats Elevation 1,107 ft / 337 m (AMSL)
Location 45.418094° -91.773620°
Runways 2
Magnetic Variation 1.082° W
Sunrise 2017-12-15 13:41:38 UTC / 2017-12-15 07:41:38 Local
Sunset 2017-12-15 22:25:53 UTC / 2017-12-15 16:25:53 Local
Advertisement - Login to hide

Runways

ID Width Length Bearing (true) Bearing (mag) Surface Threshold Offset Overrun Length
01 100 ft / 30 m 5,702 ft / 1,738 m 11.34° 12.42° Asphalt 200 ft / 61 m 0 ft / 0 m
13 75 ft / 23 m 3,495 ft / 1,065 m 130.14° 131.22° Asphalt 0 ft / 0 m 0 ft / 0 m
19 100 ft / 30 m 5,702 ft / 1,738 m 191.34° 192.42° Asphalt 0 ft / 0 m 0 ft / 0 m
31 75 ft / 23 m 3,495 ft / 1,065 m 310.15° 311.23° Asphalt 0 ft / 0 m 0 ft / 0 m

Map

Weather


0- 5 10 15 20 25 30 35+ Temperature / ° C

Clouds and Precipitation
Forecast for 2017-12-16 00:00 UTC. Updated 43 minutes ago

Ground ~20,000 ft ~40,000 ft Winds

METAR

KRPD 152155Z AUTO 00000KT 10SM CLR M08/M12 A2981 RMK AO2 T10851124

TAF

Not found

Frequencies

Recorded 120.52 MHz AWOS 3
Unicom 122.70 MHz CTAF/UNICOM
Warning: Do not use this data for real-world aviation or navigation. No guarantee of current accuracy is given.